createdAt,value
2022-12-06T00:01:12.758Z,127.50
2022-12-06T00:04:39.891Z,127.50
2022-12-06T00:08:07.872Z,126.70
2022-12-06T00:11:37.107Z,125.40
2022-12-06T00:15:04.330Z,118.20
2022-12-06T00:18:31.639Z,120.10
2022-12-06T00:21:58.333Z,129.80
2022-12-06T00:25:25.293Z,125.50
2022-12-06T00:28:55.752Z,126.00
2022-12-06T00:32:22.825Z,121.40
2022-12-06T00:35:57.907Z,120.40
2022-12-06T00:39:24.714Z,116.70
2022-12-06T00:42:51.840Z,121.10
2022-12-06T00:46:21.063Z,123.30
2022-12-06T00:49:47.967Z,123.90
2022-12-06T00:53:15.107Z,116.00
2022-12-06T00:56:42.296Z,115.80
2022-12-06T01:00:11.469Z,121.60
2022-12-06T01:03:38.678Z,122.00
2022-12-06T01:07:06.325Z,130.50
2022-12-06T01:10:33.602Z,127.80
2022-12-06T01:14:00.368Z,128.80
2022-12-06T01:17:27.146Z,130.30
2022-12-06T01:20:54.128Z,135.60
2022-12-06T01:24:21.004Z,134.60
2022-12-06T01:27:47.832Z,136.00
2022-12-06T01:31:15.261Z,132.00
2022-12-06T01:34:42.095Z,136.00
2022-12-06T01:38:08.863Z,129.90
2022-12-06T01:41:35.763Z,139.30
2022-12-06T01:45:02.886Z,156.60
2022-12-06T01:48:30.686Z,147.80
2022-12-06T01:52:02.081Z,148.10
2022-12-06T01:55:33.795Z,143.20
2022-12-06T01:59:02.074Z,142.20
2022-12-06T02:02:28.978Z,154.80
2022-12-06T02:05:57.898Z,146.30
2022-12-06T02:09:27.977Z,139.00
2022-12-06T02:12:59.763Z,143.80
2022-12-06T02:16:42.654Z,135.40
2022-12-06T02:20:23.534Z,147.70
2022-12-06T02:24:28.187Z,142.30
2022-12-06T02:28:15.165Z,136.60
2022-12-06T02:31:51.037Z,138.30
2022-12-06T02:35:26.310Z,151.30
2022-12-06T02:38:58.876Z,150.10
2022-12-06T02:42:30.031Z,140.80
2022-12-06T02:46:01.827Z,146.00
2022-12-06T02:49:34.077Z,171.80
2022-12-06T02:53:04.991Z,170.20
2022-12-06T02:56:32.998Z,151.40
2022-12-06T02:59:59.947Z,132.40
2022-12-06T03:03:44.487Z,169.30
2022-12-06T03:07:23.315Z,153.70
2022-12-06T03:10:59.137Z,189.60
2022-12-06T03:14:28.607Z,152.20
2022-12-06T03:17:59.769Z,180.70
2022-12-06T03:21:32.526Z,161.80
2022-12-06T03:25:02.214Z,178.70
2022-12-06T03:28:31.008Z,143.10
2022-12-06T03:32:01.923Z,137.20
2022-12-06T03:35:32.538Z,147.30
2022-12-06T03:39:02.764Z,165.10
2022-12-06T03:42:30.322Z,139.10
2022-12-06T03:46:03.028Z,155.00
2022-12-06T03:49:36.521Z,163.00
2022-12-06T03:53:04.102Z,164.30
2022-12-06T03:56:32.050Z,177.00
2022-12-06T03:59:59.229Z,170.20
2022-12-06T04:03:26.350Z,177.60
2022-12-06T04:06:53.889Z,178.90
2022-12-06T04:10:20.980Z,180.80
2022-12-06T04:13:48.171Z,182.40
2022-12-06T04:17:34.729Z,179.00
2022-12-06T04:21:21.565Z,172.00
2022-12-06T04:24:48.281Z,167.00
2022-12-06T04:28:33.000Z,161.70
2022-12-06T04:32:17.548Z,155.00
2022-12-06T04:36:02.419Z,186.50
2022-12-06T04:39:29.341Z,155.70
2022-12-06T04:43:14.266Z,179.40
2022-12-06T04:46:41.089Z,177.60
2022-12-06T04:50:10.130Z,191.00
2022-12-06T04:53:36.762Z,210.80
2022-12-06T04:57:03.803Z,146.40
2022-12-06T05:00:30.553Z,180.30
2022-12-06T05:03:57.481Z,166.80
2022-12-06T05:07:24.333Z,173.50
2022-12-06T05:10:52.287Z,174.10
2022-12-06T05:14:19.286Z,145.60
2022-12-06T05:17:46.109Z,176.60
2022-12-06T05:21:15.129Z,151.30
2022-12-06T05:24:42.438Z,180.70
2022-12-06T05:28:10.399Z,176.60
2022-12-06T05:31:37.092Z,182.30
2022-12-06T05:35:03.743Z,167.40
2022-12-06T05:38:30.396Z,162.10
2022-12-06T05:41:57.247Z,147.50
2022-12-06T05:45:24.337Z,173.60
2022-12-06T05:48:51.381Z,159.00
2022-12-06T05:52:18.076Z,129.30
2022-12-06T05:55:45.896Z,143.80
2022-12-06T05:59:12.722Z,158.80
2022-12-06T06:02:39.677Z,162.60
2022-12-06T06:06:07.441Z,154.50
2022-12-06T06:09:34.079Z,150.50
2022-12-06T06:13:00.933Z,199.20
2022-12-06T06:16:27.884Z,164.50
2022-12-06T06:19:54.779Z,149.80
2022-12-06T06:23:21.969Z,181.00
2022-12-06T06:26:48.658Z,180.60
2022-12-06T06:30:16.700Z,150.60
2022-12-06T06:33:43.846Z,159.30
2022-12-06T06:37:10.455Z,147.80
2022-12-06T06:40:37.513Z,186.80
2022-12-06T06:44:04.497Z,159.60
2022-12-06T06:47:31.605Z,131.90
2022-12-06T06:51:02.591Z,127.90
2022-12-06T06:54:29.835Z,95.10
2022-12-06T06:57:56.977Z,152.80
2022-12-06T07:01:25.342Z,127.40
2022-12-06T07:04:52.862Z,127.40
2022-12-06T07:08:20.051Z,119.00
2022-12-06T07:11:47.489Z,149.40
2022-12-06T07:15:15.959Z,137.00
2022-12-06T07:18:42.861Z,140.30
2022-12-06T07:22:10.574Z,113.10
2022-12-06T07:25:37.382Z,115.20
2022-12-06T07:29:04.396Z,105.40
2022-12-06T07:32:34.480Z,112.80
2022-12-06T07:36:11.900Z,132.30
2022-12-06T07:39:39.500Z,124.90
2022-12-06T07:43:23.872Z,138.10
2022-12-06T07:46:51.441Z,232.00
2022-12-06T07:50:20.550Z,195.00
2022-12-06T07:53:47.219Z,176.10
2022-12-06T07:57:13.895Z,171.50
2022-12-06T08:00:41.722Z,210.20
2022-12-06T08:04:09.041Z,231.20
2022-12-06T08:07:36.443Z,160.70
2022-12-06T08:11:04.024Z,195.40
2022-12-06T08:14:31.159Z,189.80
2022-12-06T08:17:58.223Z,205.80
2022-12-06T08:21:26.918Z,152.40
2022-12-06T08:24:53.739Z,149.50
2022-12-06T08:28:20.589Z,119.10
2022-12-06T08:31:48.427Z,105.50
2022-12-06T08:35:15.433Z,100.60
2022-12-06T08:38:43.585Z,92.80
2022-12-06T08:42:10.649Z,103.70
2022-12-06T08:45:37.509Z,95.40
2022-12-06T08:49:04.422Z,145.80
2022-12-06T08:52:31.344Z,146.10
2022-12-06T08:56:02.814Z,140.90
2022-12-06T08:59:29.900Z,154.60
2022-12-06T09:02:57.211Z,157.90
2022-12-06T09:06:24.544Z,127.90
2022-12-06T09:09:51.495Z,128.00
2022-12-06T09:13:18.756Z,97.20
2022-12-06T09:16:46.178Z,91.80
2022-12-06T09:20:18.157Z,75.50
2022-12-06T09:23:45.756Z,87.60
2022-12-06T09:27:12.539Z,84.80
2022-12-06T09:30:39.487Z,78.10
2022-12-06T09:34:06.342Z,85.90
2022-12-06T09:37:35.055Z,79.90
2022-12-06T09:41:12.429Z,94.20
2022-12-06T09:44:59.545Z,100.60
2022-12-06T09:48:51.543Z,94.20
2022-12-06T09:52:39.005Z,86.40
2022-12-06T09:56:13.091Z,82.10
2022-12-06T09:59:49.848Z,79.40
2022-12-06T10:03:49.577Z,73.80
2022-12-06T10:07:25.564Z,62.90
2022-12-06T10:11:08.300Z,70.20
2022-12-06T10:14:51.030Z,70.70
2022-12-06T10:18:33.433Z,73.20
2022-12-06T10:22:13.399Z,73.00
2022-12-06T10:25:49.545Z,80.40
2022-12-06T10:29:29.167Z,79.00
2022-12-06T10:33:05.503Z,83.90
2022-12-06T10:36:46.208Z,81.30
2022-12-06T10:40:19.264Z,77.70
2022-12-06T10:43:55.497Z,79.50
2022-12-06T10:47:26.551Z,75.90
2022-12-06T10:51:01.490Z,67.10
2022-12-06T10:54:35.276Z,62.30
2022-12-06T10:58:14.354Z,65.80
2022-12-06T11:01:44.346Z,59.10
2022-12-06T11:05:19.516Z,60.40
2022-12-06T11:08:50.925Z,57.20
2022-12-06T11:12:31.033Z,53.30
2022-12-06T11:16:04.753Z,57.70
2022-12-06T11:19:37.645Z,58.60
2022-12-06T11:23:20.609Z,73.20
2022-12-06T11:26:53.345Z,75.90
2022-12-06T11:30:21.949Z,90.80
2022-12-06T11:33:49.026Z,111.00
2022-12-06T11:37:19.958Z,96.50
2022-12-06T11:40:50.494Z,102.20
2022-12-06T11:44:20.522Z,102.70
2022-12-06T11:47:47.754Z,88.40
2022-12-06T11:51:20.195Z,82.10
2022-12-06T11:54:52.952Z,71.70
2022-12-06T11:58:26.945Z,77.60
2022-12-06T12:01:55.886Z,69.20
2022-12-06T12:05:25.770Z,75.20
2022-12-06T12:09:01.117Z,68.90
2022-12-06T12:12:51.632Z,72.80
2022-12-06T12:16:22.085Z,68.60
2022-12-06T12:19:53.570Z,68.10
2022-12-06T12:23:24.215Z,65.70
2022-12-06T12:26:51.223Z,62.60
2022-12-06T12:30:36.992Z,66.00
2022-12-06T12:34:20.064Z,64.30
2022-12-06T12:37:47.418Z,60.60
2022-12-06T12:41:33.735Z,62.10
2022-12-06T12:45:04.001Z,59.70
2022-12-06T12:48:31.306Z,60.30
2022-12-06T12:51:58.648Z,58.60
2022-12-06T12:55:28.156Z,58.60
2022-12-06T12:58:58.059Z,59.90
2022-12-06T13:02:29.738Z,68.00
2022-12-06T13:05:58.556Z,61.50
2022-12-06T13:09:29.186Z,54.00
2022-12-06T13:13:00.017Z,57.40
2022-12-06T13:16:31.850Z,55.10
2022-12-06T13:19:59.236Z,52.60
2022-12-06T13:23:28.474Z,47.50
2022-12-06T13:26:59.690Z,52.70
2022-12-06T13:30:29.874Z,51.50
2022-12-06T13:34:01.236Z,49.80
2022-12-06T13:37:35.179Z,55.90
2022-12-06T13:41:03.170Z,68.40
2022-12-06T13:44:43.843Z,113.60
2022-12-06T13:48:45.042Z,115.70
2022-12-06T13:52:31.820Z,127.40
2022-12-06T13:56:02.380Z,124.80
2022-12-06T13:59:40.455Z,104.70
2022-12-06T14:03:40.952Z,97.30
2022-12-06T14:17:26.786Z,98.10
2022-12-06T14:21:01.559Z,122.20
2022-12-06T14:24:37.352Z,88.90
2022-12-06T14:28:13.933Z,69.50
2022-12-06T14:31:42.245Z,130.90
2022-12-06T14:35:15.531Z,188.60
2022-12-06T14:38:42.322Z,107.30
2022-12-06T14:42:37.704Z,83.10
2022-12-06T14:46:06.974Z,67.40
2022-12-06T14:49:54.272Z,187.90
2022-12-06T14:53:31.863Z,112.40
2022-12-06T14:56:58.757Z,70.80
2022-12-06T15:00:31.780Z,74.30
2022-12-06T15:04:03.974Z,60.60
2022-12-06T15:07:42.607Z,58.00
2022-12-06T15:11:44.131Z,59.40
2022-12-06T15:15:33.744Z,64.10
2022-12-06T15:22:29.248Z,69.60
2022-12-06T15:25:56.984Z,64.50
2022-12-06T15:29:24.396Z,67.30
2022-12-06T15:32:51.194Z,57.10
2022-12-06T15:36:21.814Z,142.80
2022-12-06T15:39:49.033Z,136.70
2022-12-06T15:43:30.016Z,136.20
2022-12-06T15:46:57.233Z,153.70
2022-12-06T15:50:24.838Z,105.90
2022-12-06T15:53:51.933Z,68.80
2022-12-06T15:57:18.975Z,64.80
2022-12-06T16:00:47.693Z,60.00
2022-12-06T16:04:18.268Z,63.70
2022-12-06T16:07:45.071Z,61.50
2022-12-06T16:11:13.288Z,56.70
2022-12-06T16:14:40.257Z,56.10
2022-12-06T16:18:08.165Z,66.70
2022-12-06T16:21:37.141Z,63.20
2022-12-06T16:25:04.555Z,66.50
2022-12-06T16:28:31.493Z,108.30
2022-12-06T16:31:58.616Z,115.40
2022-12-06T16:35:25.644Z,85.40
2022-12-06T16:38:55.122Z,74.10
2022-12-06T16:42:21.925Z,67.00
2022-12-06T16:45:48.636Z,71.40
2022-12-06T16:53:08.349Z,69.00
2022-12-06T16:56:41.290Z,78.50
2022-12-06T17:00:15.500Z,74.30
2022-12-06T17:03:42.538Z,68.30
2022-12-06T17:07:09.295Z,56.90
2022-12-06T17:10:36.406Z,56.30
2022-12-06T17:14:03.470Z,54.80
2022-12-06T17:17:30.437Z,45.00
2022-12-06T17:20:57.160Z,43.00
2022-12-06T17:24:25.454Z,45.40
2022-12-06T17:27:52.822Z,44.40
2022-12-06T17:31:20.030Z,47.30
2022-12-06T17:34:47.269Z,53.60
2022-12-06T17:38:14.510Z,53.10
2022-12-06T17:41:59.165Z,51.90
2022-12-06T17:45:27.708Z,61.10
2022-12-06T17:48:55.198Z,62.40
2022-12-06T17:52:22.585Z,62.00
2022-12-06T17:55:49.633Z,65.40
2022-12-06T17:59:18.818Z,52.80
2022-12-06T18:02:46.003Z,51.30
2022-12-06T18:06:13.474Z,54.50
2022-12-06T18:09:40.610Z,59.90
2022-12-06T18:13:07.909Z,81.00
2022-12-06T18:16:37.748Z,59.40
2022-12-06T18:20:05.296Z,62.80
2022-12-06T18:23:32.098Z,67.40
2022-12-06T18:26:58.804Z,55.20
2022-12-06T18:30:25.749Z,53.60
2022-12-06T18:33:53.440Z,54.20
2022-12-06T18:37:20.558Z,47.30
2022-12-06T18:40:47.378Z,45.70
2022-12-06T18:44:14.416Z,38.90
2022-12-06T18:47:41.181Z,44.60
2022-12-06T18:51:10.341Z,56.30
2022-12-06T18:54:37.273Z,79.40
2022-12-06T18:58:03.860Z,68.70
2022-12-06T19:01:32.388Z,67.60
2022-12-06T19:05:00.493Z,59.40
2022-12-06T19:08:27.563Z,97.40
2022-12-06T19:11:54.474Z,155.60
2022-12-06T19:15:21.467Z,120.40
2022-12-06T19:18:48.621Z,94.20
2022-12-06T19:22:15.381Z,93.60
2022-12-06T19:25:42.408Z,74.30
2022-12-06T19:29:09.616Z,92.50
2022-12-06T19:32:37.160Z,70.50
2022-12-06T19:36:06.833Z,72.00
2022-12-06T19:39:34.131Z,69.30
2022-12-06T19:43:18.809Z,60.70
2022-12-06T19:46:48.203Z,55.40
2022-12-06T19:50:15.009Z,43.50
2022-12-06T19:53:43.064Z,46.40
2022-12-06T19:57:10.660Z,42.80
2022-12-06T20:00:39.282Z,44.80
2022-12-06T20:04:06.402Z,40.60
2022-12-06T20:07:34.441Z,51.70
2022-12-06T20:11:07.065Z,39.50
2022-12-06T20:14:37.315Z,34.90
2022-12-06T20:18:04.227Z,39.90
2022-12-06T20:21:31.027Z,39.90
2022-12-06T20:24:57.804Z,43.20
2022-12-06T20:28:25.150Z,40.50
2022-12-06T20:31:52.834Z,42.10
2022-12-06T20:35:20.250Z,39.70
2022-12-06T20:38:47.062Z,42.70
2022-12-06T20:42:13.874Z,62.90
2022-12-06T20:45:41.069Z,67.80
2022-12-06T20:49:08.141Z,58.20
2022-12-06T20:52:35.108Z,50.50
2022-12-06T20:56:06.539Z,59.10
2022-12-06T20:59:33.454Z,47.10
2022-12-06T21:03:00.384Z,53.50
2022-12-06T21:06:28.358Z,51.30
2022-12-06T21:09:55.268Z,40.80
2022-12-06T21:13:22.777Z,41.00
2022-12-06T21:16:49.624Z,27.20
2022-12-06T21:20:17.274Z,28.50
2022-12-06T21:23:44.431Z,28.50
2022-12-06T21:27:11.162Z,32.30
2022-12-06T21:30:38.242Z,34.20
2022-12-06T21:34:05.969Z,35.50
2022-12-06T21:37:33.232Z,34.90
2022-12-06T21:41:07.154Z,31.90
2022-12-06T21:44:34.243Z,35.10
2022-12-06T21:48:01.037Z,34.10
2022-12-06T21:51:29.628Z,51.80
2022-12-06T21:54:57.038Z,47.60
2022-12-06T21:58:23.919Z,63.90
2022-12-06T22:01:53.723Z,56.70
2022-12-06T22:05:20.916Z,54.60
2022-12-06T22:08:48.465Z,52.20
2022-12-06T22:12:15.393Z,50.30
2022-12-06T22:15:42.470Z,57.90
2022-12-06T22:19:09.747Z,63.90
2022-12-06T22:22:36.553Z,50.00
2022-12-06T22:26:09.297Z,50.60
2022-12-06T22:29:36.116Z,45.70
2022-12-06T22:33:02.827Z,51.80
2022-12-06T22:36:30.550Z,51.60
2022-12-06T22:39:57.763Z,52.00
2022-12-06T22:43:24.809Z,43.90
2022-12-06T22:46:52.285Z,45.00
2022-12-06T22:50:19.375Z,43.40
2022-12-06T22:53:48.084Z,36.00
2022-12-06T22:57:14.945Z,32.60
2022-12-06T23:00:41.884Z,30.00
2022-12-06T23:04:09.484Z,21.80
2022-12-06T23:07:36.413Z,25.10
2022-12-06T23:11:06.308Z,24.40
2022-12-06T23:14:33.146Z,25.80
2022-12-06T23:17:59.878Z,24.20
2022-12-06T23:21:28.343Z,26.80
2022-12-06T23:24:55.486Z,23.00
2022-12-06T23:28:24.133Z,24.30
2022-12-06T23:31:51.596Z,24.90
2022-12-06T23:35:18.522Z,24.00
2022-12-06T23:38:45.952Z,23.70
2022-12-06T23:42:12.773Z,24.80
2022-12-06T23:45:39.632Z,22.20
2022-12-06T23:49:07.141Z,24.30
2022-12-06T23:52:34.061Z,23.30
2022-12-06T23:56:02.319Z,22.90
2022-12-06T23:59:29.058Z,25.30
